Time;durP1;ratioP1;P1;durP2;ratioP2;P2;SDS_P1;SDS_P2;PMS_P1;PMS_P2;Temp;Humidity;BMP_temperature;BMP_pressure;BME280_temperature;BME280_humidity;BME280_pressure;Samples;Min_cycle;Max_cycle;Signal;HPM_P1;HPM_P2
2023/05/27 00:01:50;;;;;;;;;;;14.30;99.90;;;;;;5066787;28;19979;-69
2023/05/27 00:04:16;;;;;;;;;;;14.30;99.90;;;;;;5080221;28;19983;-69
2023/05/27 00:06:44;;;;;;;;;;;14.30;99.90;;;;;;5079035;28;19942;-69
2023/05/27 00:09:11;;;;;;;;;;;14.30;99.90;;;;;;5043508;28;19921;-69
2023/05/27 00:11:38;;;;;;;;;;;14.30;99.90;;;;;;5043440;28;19988;-69
2023/05/27 00:14:04;;;;;;;;;;;14.30;99.90;;;;;;5043608;28;20140;-69
2023/05/27 00:16:31;;;;;;;;;;;14.30;99.90;;;;;;5042342;28;19988;-69
2023/05/27 00:18:58;;;;;;;;;;;14.30;99.90;;;;;;5043145;28;19921;-69
2023/05/27 00:21:24;;;;;;;;;;;14.20;99.90;;;;;;5043158;28;19983;-69
2023/05/27 00:23:52;;;;;;;;;;;14.30;99.90;;;;;;5043137;28;20251;-69
2023/05/27 00:26:19;;;;;;;;;;;14.20;99.90;;;;;;5043124;28;19921;-69
2023/05/27 00:28:46;;;;;;;;;;;14.10;99.90;;;;;;5042943;28;19921;-68
2023/05/27 00:31:12;;;;;;;;;;;14.10;99.90;;;;;;5052735;28;20264;-68
2023/05/27 00:33:39;;;;;;;;;;;14.10;99.90;;;;;;5063338;28;19921;-69
2023/05/27 00:36:06;;;;;;;;;;;14.10;99.90;;;;;;5063111;28;19987;-69
2023/05/27 00:38:32;;;;;;;;;;;14.00;99.90;;;;;;5049933;28;19988;-69
2023/05/27 00:41:01;;;;;;;;;;;14.00;99.90;;;;;;5054058;28;19921;-69
2023/05/27 00:43:27;;;;;;;;;;;14.00;99.90;;;;;;5042876;28;20209;-67
2023/05/27 00:45:54;;;;;;;;;;;13.90;99.90;;;;;;5042775;28;19952;-67
2023/05/27 00:48:20;;;;;;;;;;;13.90;99.90;;;;;;5043095;28;19921;-66
2023/05/27 00:50:47;;;;;;;;;;;14.00;99.90;;;;;;5042787;28;19921;-67
2023/05/27 00:53:14;;;;;;;;;;;14.00;99.90;;;;;;5043104;28;19953;-67
2023/05/27 00:55:41;;;;;;;;;;;13.90;99.90;;;;;;5043009;28;19983;-67
2023/05/27 00:58:09;;;;;;;;;;;13.90;99.90;;;;;;5042956;28;19921;-67
2023/05/27 01:00:37;;;;;;;;;;;13.80;99.90;;;;;;5047034;28;21196;-66
2023/05/27 01:03:04;;;;;;;;;;;13.80;99.90;;;;;;5062887;28;19943;-67
2023/05/27 01:05:30;;;;;;;;;;;13.70;99.90;;;;;;5062930;28;20116;-67
2023/05/27 01:08:03;;;;;;;;;;;13.80;99.90;;;;;;5051832;28;19927;-66
2023/05/27 01:10:36;;;;;;;;;;;13.70;99.90;;;;;;5042442;28;19920;-67
2023/05/27 01:13:07;;;;;;;;;;;13.70;99.90;;;;;;5042964;28;20032;-67
2023/05/27 01:15:35;;;;;;;;;;;13.60;99.90;;;;;;5046501;28;19959;-67
2023/05/27 01:18:03;;;;;;;;;;;13.60;99.90;;;;;;5045370;28;20155;-67
2023/05/27 01:20:30;;;;;;;;;;;13.60;99.90;;;;;;5046341;28;19959;-67
2023/05/27 01:22:59;;;;;;;;;;;13.60;99.90;;;;;;5046475;28;19921;-67
2023/05/27 01:25:26;;;;;;;;;;;13.60;99.90;;;;;;5046229;28;19921;-67
2023/05/27 01:27:52;;;;;;;;;;;13.50;99.90;;;;;;5046161;28;19953;-67
2023/05/27 01:30:19;;;;;;;;;;;13.40;99.90;;;;;;5045069;28;19991;-67
2023/05/27 01:32:51;;;;;;;;;;;13.40;99.90;;;;;;5045924;28;19921;-66
2023/05/27 01:35:20;;;;;;;;;;;13.40;99.90;;;;;;5046132;28;19920;-67
2023/05/27 01:37:46;;;;;;;;;;;13.40;99.90;;;;;;5054399;28;19980;-67
2023/05/27 01:40:15;;;;;;;;;;;13.40;99.90;;;;;;5065388;28;20270;-67
2023/05/27 01:42:42;;;;;;;;;;;13.30;99.90;;;;;;5065982;28;19963;-67
2023/05/27 01:45:09;;;;;;;;;;;13.30;99.90;;;;;;5065580;28;20207;-67
2023/05/27 01:47:36;;;;;;;;;;;13.30;99.90;;;;;;5049533;28;19927;-67
2023/05/27 01:50:03;;;;;;;;;;;13.30;99.90;;;;;;5045658;28;20133;-66
2023/05/27 01:52:30;;;;;;;;;;;13.20;99.90;;;;;;5045594;28;19921;-67
2023/05/27 01:54:56;;;;;;;;;;;13.30;99.90;;;;;;5045905;28;20165;-67
2023/05/27 01:57:25;;;;;;;;;;;13.10;99.90;;;;;;5045440;28;19992;-67
2023/05/27 01:59:51;;;;;;;;;;;13.10;99.90;;;;;;5045248;28;19927;-67
2023/05/27 02:02:18;;;;;;;;;;;13.20;99.90;;;;;;5058980;28;19988;-67
2023/05/27 02:04:44;;;;;;;;;;;13.10;99.90;;;;;;5065585;28;20164;-67
2023/05/27 02:07:11;;;;;;;;;;;13.10;99.90;;;;;;5065038;28;19939;-67
2023/05/27 02:09:38;;;;;;;;;;;13.10;99.90;;;;;;5065182;28;19921;-67
2023/05/27 02:12:05;;;;;;;;;;;13.00;99.90;;;;;;5049216;28;19967;-67
2023/05/27 02:14:34;;;;;;;;;;;13.00;99.90;;;;;;5045003;28;20232;-67
2023/05/27 02:17:03;;;;;;;;;;;12.90;99.90;;;;;;5044362;28;19992;-67
2023/05/27 02:19:30;;;;;;;;;;;12.90;99.90;;;;;;5044997;28;20254;-67
2023/05/27 02:21:56;;;;;;;;;;;12.80;99.90;;;;;;5045082;28;19952;-67
2023/05/27 02:24:23;;;;;;;;;;;12.80;99.90;;;;;;5044950;28;19993;-67
2023/05/27 02:26:50;;;;;;;;;;;12.80;99.90;;;;;;5045136;28;19920;-67
2023/05/27 02:29:16;;;;;;;;;;;12.80;99.90;;;;;;5045150;28;19921;-67
2023/05/27 02:31:46;;;;;;;;;;;12.80;99.90;;;;;;5044199;28;19921;-67
2023/05/27 02:34:13;;;;;;;;;;;12.80;99.90;;;;;;5044882;28;19921;-67
2023/05/27 02:36:39;;;;;;;;;;;12.70;99.90;;;;;;5044989;28;19989;-66
2023/05/27 02:39:06;;;;;;;;;;;12.70;99.90;;;;;;5044930;28;20115;-67
2023/05/27 02:41:33;;;;;;;;;;;12.70;99.90;;;;;;5044890;28;19921;-67
2023/05/27 02:43:59;;;;;;;;;;;12.70;99.90;;;;;;5044823;28;19921;-67
2023/05/27 02:46:26;;;;;;;;;;;12.70;99.90;;;;;;5044809;28;19943;-67
2023/05/27 02:48:54;;;;;;;;;;;12.70;99.90;;;;;;5044630;28;19943;-67
2023/05/27 02:51:22;;;;;;;;;;;12.70;99.90;;;;;;5059906;28;19924;-67
2023/05/27 02:53:48;;;;;;;;;;;12.60;99.90;;;;;;5064276;28;20259;-67
2023/05/27 02:56:15;;;;;;;;;;;12.60;99.90;;;;;;5063987;28;19921;-67
2023/05/27 02:58:41;;;;;;;;;;;12.60;99.90;;;;;;5064435;28;20119;-67
2023/05/27 03:01:08;;;;;;;;;;;12.60;99.90;;;;;;5064323;28;19920;-67
2023/05/27 03:03:35;;;;;;;;;;;12.50;99.90;;;;;;5064537;28;19955;-67
2023/05/27 03:06:03;;;;;;;;;;;12.50;99.90;;;;;;5064171;28;19982;-67
2023/05/27 03:08:30;;;;;;;;;;;12.40;99.90;;;;;;5051461;28;19987;-67
2023/05/27 03:10:57;;;;;;;;;;;12.40;99.90;;;;;;5044250;28;19921;-67
2023/05/27 03:13:24;;;;;;;;;;;12.30;99.90;;;;;;5044290;28;19957;-67
2023/05/27 03:15:51;;;;;;;;;;;12.30;99.90;;;;;;5043930;28;20243;-66
2023/05/27 03:18:18;;;;;;;;;;;12.30;99.90;;;;;;5043089;28;19921;-67
2023/05/27 03:20:45;;;;;;;;;;;12.10;99.90;;;;;;5045466;28;19921;-67
2023/05/27 03:23:13;;;;;;;;;;;12.10;99.90;;;;;;5063806;28;19931;-67
2023/05/27 03:25:39;;;;;;;;;;;12.10;99.90;;;;;;5063589;28;20208;-67
2023/05/27 03:28:06;;;;;;;;;;;12.10;99.90;;;;;;5063694;28;19921;-67
2023/05/27 03:30:34;;;;;;;;;;;12.00;99.90;;;;;;5062954;28;19983;-67
2023/05/27 03:33:00;;;;;;;;;;;12.10;99.90;;;;;;5063749;28;19920;-67
2023/05/27 03:35:27;;;;;;;;;;;12.00;99.90;;;;;;5063679;28;19920;-67
2023/05/27 03:37:53;;;;;;;;;;;12.00;99.90;;;;;;5062677;28;19921;-67
2023/05/27 03:40:21;;;;;;;;;;;12.00;99.90;;;;;;5063426;28;19943;-67
2023/05/27 03:42:48;;;;;;;;;;;12.00;99.90;;;;;;5063795;28;19929;-66
2023/05/27 03:45:14;;;;;;;;;;;12.00;99.90;;;;;;5063733;28;19988;-67
2023/05/27 03:47:41;;;;;;;;;;;12.00;99.90;;;;;;5063322;28;19921;-67
2023/05/27 03:50:08;;;;;;;;;;;11.90;99.90;;;;;;5063457;28;19979;-67
2023/05/27 03:52:34;;;;;;;;;;;11.90;99.90;;;;;;5063432;28;20204;-67
2023/05/27 03:55:01;;;;;;;;;;;11.90;99.90;;;;;;5063354;28;19956;-67
2023/05/27 03:57:29;;;;;;;;;;;11.90;99.90;;;;;;5063009;28;20219;-66
2023/05/27 03:59:56;;;;;;;;;;;11.90;99.90;;;;;;5063487;28;19921;-67
2023/05/27 04:02:22;;;;;;;;;;;11.90;99.90;;;;;;5063257;28;19988;-67
2023/05/27 04:04:49;;;;;;;;;;;11.90;99.90;;;;;;5063205;28;19988;-67
2023/05/27 04:07:17;;;;;;;;;;;11.90;99.90;;;;;;5062204;28;19925;-67
2023/05/27 04:09:44;;;;;;;;;;;11.90;99.90;;;;;;5043238;28;19952;-67
2023/05/27 04:12:11;;;;;;;;;;;11.90;99.90;;;;;;5043079;28;19921;-67
2023/05/27 04:14:39;;;;;;;;;;;12.00;99.90;;;;;;5043456;28;19984;-67
2023/05/27 04:17:06;;;;;;;;;;;12.00;99.90;;;;;;5042130;28;20263;-67
2023/05/27 04:19:34;;;;;;;;;;;12.00;99.90;;;;;;5043538;28;19984;-66
2023/05/27 04:22:00;;;;;;;;;;;12.10;99.90;;;;;;5043383;28;19967;-66
2023/05/27 04:24:27;;;;;;;;;;;12.10;99.90;;;;;;5043082;28;19921;-67
2023/05/27 04:26:53;;;;;;;;;;;12.10;99.90;;;;;;5043231;28;19984;-67
2023/05/27 04:29:22;;;;;;;;;;;12.10;99.90;;;;;;5043523;28;19983;-67
2023/05/27 04:31:52;;;;;;;;;;;12.20;99.90;;;;;;5042750;28;19921;-66
2023/05/27 04:34:19;;;;;;;;;;;12.20;99.90;;;;;;5043407;28;19928;-67
2023/05/27 04:36:49;;;;;;;;;;;12.30;99.90;;;;;;5042865;28;19927;-67
2023/05/27 04:39:16;;;;;;;;;;;12.30;99.90;;;;;;5059625;28;19925;-67
2023/05/27 04:41:42;;;;;;;;;;;12.40;99.90;;;;;;5062787;28;19963;-66
2023/05/27 04:44:09;;;;;;;;;;;12.40;99.90;;;;;;5063254;28;20165;-67
2023/05/27 04:46:38;;;;;;;;;;;12.50;99.90;;;;;;5062978;28;19921;-67
2023/05/27 04:49:06;;;;;;;;;;;12.50;99.90;;;;;;5065074;28;19921;-67
2023/05/27 04:51:35;;;;;;;;;;;12.50;99.90;;;;;;5066645;28;19927;-67
2023/05/27 04:54:02;;;;;;;;;;;12.50;99.90;;;;;;5066851;28;19928;-67
2023/05/27 04:56:28;;;;;;;;;;;12.60;99.90;;;;;;5046782;28;19984;-67
2023/05/27 04:58:55;;;;;;;;;;;12.50;99.90;;;;;;5046880;28;19984;-67
2023/05/27 05:01:24;;;;;;;;;;;12.60;99.90;;;;;;5049194;28;19939;-66
2023/05/27 05:04:10;;;;;;;;;;;12.60;99.90;;;;;;5066813;28;19927;-66
2023/05/27 05:06:39;;;;;;;;;;;12.60;99.90;;;;;;5066585;28;19944;-73
2023/05/27 05:09:07;;;;;;;;;;;12.60;99.90;;;;;;5065891;28;20205;-66
2023/05/27 05:11:34;;;;;;;;;;;12.70;99.90;;;;;;5066261;28;19927;-67
2023/05/27 05:14:00;;;;;;;;;;;12.70;99.90;;;;;;5066233;28;19989;-67
2023/05/27 05:16:27;;;;;;;;;;;12.80;99.90;;;;;;5065247;28;19928;-67
2023/05/27 05:18:53;;;;;;;;;;;12.90;99.90;;;;;;5066210;28;19928;-67
2023/05/27 05:21:20;;;;;;;;;;;12.90;99.90;;;;;;5066077;28;20294;-66
2023/05/27 05:23:48;;;;;;;;;;;12.90;99.90;;;;;;5066180;28;19956;-67
2023/05/27 05:26:15;;;;;;;;;;;12.90;99.90;;;;;;5065978;28;20031;-67
2023/05/27 05:28:41;;;;;;;;;;;12.90;99.90;;;;;;5066161;28;20161;-66
2023/05/27 05:31:08;;;;;;;;;;;12.90;99.90;;;;;;5064605;28;19988;-67
2023/05/27 05:33:34;;;;;;;;;;;12.90;99.90;;;;;;5065808;28;19921;-66
2023/05/27 05:36:01;;;;;;;;;;;12.90;99.90;;;;;;5066192;28;19920;-67
2023/05/27 05:38:29;;;;;;;;;;;13.00;99.90;;;;;;5056985;28;19976;-67
2023/05/27 05:40:57;;;;;;;;;;;13.00;99.90;;;;;;5045779;28;20212;-67
2023/05/27 05:43:25;;;;;;;;;;;13.10;99.90;;;;;;5045881;28;19958;-67
2023/05/27 05:45:52;;;;;;;;;;;13.20;99.90;;;;;;5045674;28;19971;-67
2023/05/27 05:48:19;;;;;;;;;;;13.30;99.90;;;;;;5057507;28;19935;-67
2023/05/27 05:50:45;;;;;;;;;;;13.30;99.90;;;;;;5065500;28;19921;-67
2023/05/27 05:53:12;;;;;;;;;;;13.30;99.90;;;;;;5065457;28;19987;-68
2023/05/27 05:55:39;;;;;;;;;;;13.30;99.90;;;;;;5064917;28;19920;-69
2023/05/27 05:58:07;;;;;;;;;;;13.30;99.90;;;;;;5065563;28;19963;-69
2023/05/27 06:00:33;;;;;;;;;;;13.30;99.90;;;;;;5084032;28;19959;-70
2023/05/27 06:03:00;;;;;;;;;;;13.30;99.90;;;;;;5085360;28;19995;-70
2023/05/27 06:05:27;;;;;;;;;;;13.30;99.90;;;;;;5066331;28;19988;-71
2023/05/27 06:07:54;;;;;;;;;;;13.30;99.90;;;;;;5064703;28;20179;-69
2023/05/27 06:10:20;;;;;;;;;;;13.40;99.90;;;;;;5064614;28;19920;-68
2023/05/27 06:12:47;;;;;;;;;;;13.40;99.90;;;;;;5054757;28;20260;-69
2023/05/27 06:15:15;;;;;;;;;;;13.50;99.90;;;;;;5045246;28;20277;-68
2023/05/27 06:17:42;;;;;;;;;;;13.70;99.90;;;;;;5044194;28;19921;-70
2023/05/27 06:20:09;;;;;;;;;;;13.80;99.90;;;;;;5044829;28;19984;-66
2023/05/27 06:22:35;;;;;;;;;;;13.80;99.90;;;;;;5057829;28;19979;-65
2023/05/27 06:25:02;;;;;;;;;;;13.90;99.90;;;;;;5051567;28;19976;-67
2023/05/27 06:27:28;;;;;;;;;;;13.90;99.90;;;;;;5063553;28;19920;-68
2023/05/27 06:29:56;;;;;;;;;;;14.00;99.90;;;;;;5059620;28;20149;-66
2023/05/27 06:32:24;;;;;;;;;;;14.00;99.90;;;;;;5055421;28;20112;-67
2023/05/27 06:34:51;;;;;;;;;;;14.00;99.90;;;;;;5064818;28;19983;-67
2023/05/27 06:37:17;;;;;;;;;;;14.10;99.90;;;;;;5064363;28;20251;-67
2023/05/27 06:39:44;;;;;;;;;;;14.10;99.90;;;;;;5064653;28;19921;-66
2023/05/27 06:42:10;;;;;;;;;;;14.10;99.90;;;;;;5064445;28;19921;-68
2023/05/27 06:44:37;;;;;;;;;;;14.10;99.90;;;;;;5064855;28;19927;-67
2023/05/27 06:47:04;;;;;;;;;;;14.20;99.90;;;;;;5064452;28;19936;-67
2023/05/27 06:49:32;;;;;;;;;;;14.30;99.90;;;;;;5064663;28;19927;-69
2023/05/27 06:51:58;;;;;;;;;;;14.30;99.90;;;;;;5064163;28;19920;-67
2023/05/27 06:54:25;;;;;;;;;;;14.40;99.90;;;;;;5064383;28;19952;-67
2023/05/27 06:56:52;;;;;;;;;;;14.50;99.90;;;;;;5063848;28;20284;-67
2023/05/27 06:59:18;;;;;;;;;;;14.40;99.90;;;;;;5064169;28;19935;-67
2023/05/27 07:01:45;;;;;;;;;;;14.50;99.90;;;;;;5046213;28;19921;-68
2023/05/27 07:04:12;;;;;;;;;;;14.60;99.90;;;;;;5046204;28;21281;-67
2023/05/27 07:06:40;;;;;;;;;;;14.60;99.90;;;;;;5058615;28;19983;-68
2023/05/27 07:09:06;;;;;;;;;;;14.70;99.90;;;;;;5051904;28;19921;-67
2023/05/27 07:11:33;;;;;;;;;;;14.70;99.90;;;;;;5059685;28;20399;-67
2023/05/27 07:14:01;;;;;;;;;;;14.80;99.90;;;;;;5058013;28;19927;-68
2023/05/27 07:16:27;;;;;;;;;;;14.90;99.90;;;;;;5045644;28;19980;-68
2023/05/27 07:18:54;;;;;;;;;;;15.00;99.90;;;;;;5052929;28;19920;-67
2023/05/27 07:21:20;;;;;;;;;;;15.10;99.90;;;;;;5063554;28;19927;-68
2023/05/27 07:23:48;;;;;;;;;;;15.10;99.90;;;;;;5043797;28;20128;-67
2023/05/27 07:26:15;;;;;;;;;;;15.20;99.90;;;;;;5043582;28;19992;-67
2023/05/27 07:28:41;;;;;;;;;;;15.20;99.90;;;;;;5043700;28;19984;-68
2023/05/27 07:31:08;;;;;;;;;;;15.20;99.90;;;;;;5043584;28;20256;-68
2023/05/27 07:33:35;;;;;;;;;;;15.30;99.90;;;;;;5060393;28;19979;-67
2023/05/27 07:36:01;;;;;;;;;;;15.30;99.90;;;;;;5063668;28;19987;-66
2023/05/27 07:38:28;;;;;;;;;;;15.40;99.90;;;;;;5063189;28;20127;-67
2023/05/27 07:40:56;;;;;;;;;;;15.40;99.90;;;;;;5063674;28;19956;-66
2023/05/27 07:43:27;;;;;;;;;;;15.50;99.90;;;;;;5045420;28;19927;-65
2023/05/27 07:45:53;;;;;;;;;;;15.60;99.90;;;;;;5043664;28;19921;-66
2023/05/27 07:48:20;;;;;;;;;;;15.60;99.90;;;;;;5056407;28;19980;-66
2023/05/27 07:50:46;;;;;;;;;;;15.70;99.90;;;;;;5048210;28;19943;-66
2023/05/27 07:53:13;;;;;;;;;;;15.70;99.90;;;;;;5069189;28;19988;-66
2023/05/27 07:55:40;;;;;;;;;;;15.80;99.90;;;;;;5083551;28;19987;-66
2023/05/27 07:58:08;;;;;;;;;;;15.90;99.90;;;;;;5082987;28;20409;-66
2023/05/27 08:00:34;;;;;;;;;;;15.90;99.90;;;;;;5083521;28;19952;-66
2023/05/27 08:03:01;;;;;;;;;;;16.00;99.90;;;;;;5067434;28;19921;-66
2023/05/27 08:05:27;;;;;;;;;;;16.10;99.90;;;;;;5060852;28;19983;-66
2023/05/27 08:07:54;;;;;;;;;;;16.20;99.90;;;;;;5062722;28;20003;-66
2023/05/27 08:10:21;;;;;;;;;;;16.30;99.90;;;;;;5063402;28;19921;-66
2023/05/27 08:12:48;;;;;;;;;;;16.40;99.90;;;;;;5059476;28;19921;-66
2023/05/27 08:15:15;;;;;;;;;;;16.40;99.90;;;;;;5061557;28;19987;-66
2023/05/27 08:17:43;;;;;;;;;;;16.50;99.90;;;;;;5049110;28;19959;-66
2023/05/27 08:20:10;;;;;;;;;;;16.60;99.90;;;;;;5048888;28;19956;-66
2023/05/27 08:22:37;;;;;;;;;;;16.70;99.90;;;;;;5051434;28;19928;-66
2023/05/27 08:25:04;;;;;;;;;;;16.80;99.90;;;;;;5060095;28;20176;-66
2023/05/27 08:27:43;;;;;;;;;;;16.80;99.90;;;;;;5061091;28;19925;-66
2023/05/27 08:30:10;;;;;;;;;;;16.90;99.90;;;;;;5082533;28;19921;-66
2023/05/27 08:32:38;;;;;;;;;;;17.00;99.90;;;;;;5077804;28;19984;-66
2023/05/27 08:35:05;;;;;;;;;;;17.00;99.90;;;;;;5067202;28;20108;-66
2023/05/27 08:37:32;;;;;;;;;;;17.10;99.90;;;;;;5066673;28;19984;-66
2023/05/27 08:39:58;;;;;;;;;;;17.10;99.90;;;;;;5066565;28;20212;-66
2023/05/27 08:42:25;;;;;;;;;;;17.20;99.90;;;;;;5066954;28;19920;-66
2023/05/27 08:44:52;;;;;;;;;;;17.20;99.90;;;;;;5060453;28;19927;-66
2023/05/27 08:47:19;;;;;;;;;;;17.30;99.90;;;;;;5060767;28;19928;-66
2023/05/27 08:49:47;;;;;;;;;;;17.40;99.90;;;;;;5048679;28;19927;-66
2023/05/27 08:52:18;;;;;;;;;;;17.50;99.90;;;;;;5059038;28;19920;-66
2023/05/27 08:54:46;;;;;;;;;;;17.60;99.90;;;;;;5055150;28;19928;-66
2023/05/27 08:57:13;;;;;;;;;;;17.60;99.90;;;;;;5053391;28;19927;-66
2023/05/27 08:59:40;;;;;;;;;;;17.70;99.90;;;;;;5066707;28;19927;-66
2023/05/27 09:02:11;;;;;;;;;;;17.70;99.90;;;;;;5063038;28;19967;-66
2023/05/27 09:04:38;;;;;;;;;;;17.80;99.90;;;;;;5046786;28;19921;-66
2023/05/27 09:07:06;;;;;;;;;;;17.90;99.90;;;;;;5046507;28;19959;-66
2023/05/27 09:09:32;;;;;;;;;;;18.00;99.90;;;;;;5050899;28;19921;-66
2023/05/27 09:12:00;;;;;;;;;;;18.10;99.90;;;;;;5046254;28;20239;-66
2023/05/27 09:14:28;;;;;;;;;;;18.20;99.90;;;;;;5046363;28;19930;-66
2023/05/27 09:17:05;;;;;;;;;;;18.20;99.90;;;;;;5047310;28;20098;-66
2023/05/27 09:19:32;;;;;;;;;;;18.30;99.90;;;;;;5046040;28;19921;-66
2023/05/27 09:21:59;;;;;;;;;;;18.40;99.90;;;;;;5046273;28;19984;-66
2023/05/27 09:24:27;;;;;;;;;;;18.50;99.90;;;;;;5047061;28;19921;-66
2023/05/27 09:26:54;;;;;;;;;;;18.50;99.90;;;;;;5065783;28;19921;-66
2023/05/27 09:29:23;;;;;;;;;;;18.50;99.90;;;;;;5065980;28;19988;-66
2023/05/27 09:31:54;;;;;;;;;;;18.60;99.90;;;;;;5064995;28;19921;-66
2023/05/27 09:34:20;;;;;;;;;;;18.60;99.90;;;;;;5045421;28;19921;-66
2023/05/27 09:36:48;;;;;;;;;;;18.70;99.90;;;;;;5048765;28;19980;-66
2023/05/27 09:39:15;;;;;;;;;;;18.80;99.90;;;;;;5055983;28;19957;-65
2023/05/27 09:41:43;;;;;;;;;;;18.90;99.90;;;;;;5045924;28;19927;-66
2023/05/27 09:44:10;;;;;;;;;;;19.00;99.90;;;;;;5052278;28;20208;-67
2023/05/27 09:46:37;;;;;;;;;;;19.00;99.90;;;;;;5065590;28;19927;-66
2023/05/27 09:49:04;;;;;;;;;;;19.10;99.90;;;;;;5065968;28;19921;-66
2023/05/27 09:51:31;;;;;;;;;;;19.20;99.90;;;;;;5064196;28;19959;-66
2023/05/27 09:53:58;;;;;;;;;;;19.30;99.90;;;;;;5048360;28;20112;-66
2023/05/27 09:56:26;;;;;;;;;;;19.40;99.90;;;;;;5053879;28;19927;-66
2023/05/27 09:58:55;;;;;;;;;;;19.40;99.90;;;;;;5059444;28;20112;-66
2023/05/27 10:01:23;;;;;;;;;;;19.50;99.90;;;;;;5058353;28;19928;-66
2023/05/27 10:03:50;;;;;;;;;;;19.60;99.90;;;;;;5064412;28;20243;-67
2023/05/27 10:06:18;;;;;;;;;;;19.60;99.90;;;;;;5064285;28;20510;-66
2023/05/27 10:08:45;;;;;;;;;;;19.60;99.90;;;;;;5064629;28;19933;-66
2023/05/27 10:11:11;;;;;;;;;;;19.70;99.90;;;;;;5065111;28;19924;-66
2023/05/27 10:13:38;;;;;;;;;;;19.80;99.90;;;;;;5065133;28;19920;-66
2023/05/27 10:16:06;;;;;;;;;;;19.80;99.90;;;;;;5052518;28;20269;-67
2023/05/27 10:18:52;;;;;;;;;;;;;;;;;;;;;
2023/05/27 10:21:20;;;;;;;;;;;19.90;99.90;;;;;;5021503;28;19979;-66
2023/05/27 10:24:00;;;;;;;;;;;19.90;99.90;;;;;;5044990;28;19988;-66
2023/05/27 10:29:36;;;;;;;;;;;20.20;99.90;;;;;;5046356;28;20415;-66
2023/05/27 10:32:04;;;;;;;;;;;20.30;99.90;;;;;;5051483;28;19936;-67
2023/05/27 10:34:34;;;;;;;;;;;20.40;99.90;;;;;;5051634;28;19921;-66
2023/05/27 10:37:01;;;;;;;;;;;20.40;99.90;;;;;;5044904;28;19956;-66
2023/05/27 10:39:27;;;;;;;;;;;20.60;99.90;;;;;;5044672;28;20221;-66
2023/05/27 10:41:55;;;;;;;;;;;20.70;99.90;;;;;;5044456;28;20227;-66
2023/05/27 10:44:28;;;;;;;;;;;20.80;99.90;;;;;;5044672;28;19921;-66
2023/05/27 10:47:00;;;;;;;;;;;20.80;99.90;;;;;;5043381;28;20275;-67
2023/05/27 10:49:35;;;;;;;;;;;20.90;99.90;;;;;;5044688;28;20093;-66
2023/05/27 10:52:06;;;;;;;;;;;20.90;99.90;;;;;;5047825;28;19921;-66
2023/05/27 10:54:35;;;;;;;;;;;21.00;99.90;;;;;;5063565;28;19960;-65
2023/05/27 10:57:03;;;;;;;;;;;21.00;99.90;;;;;;5044345;28;19921;-67
2023/05/27 10:59:36;;;;;;;;;;;21.10;99.90;;;;;;5055556;28;19921;-66
2023/05/27 11:02:04;;;;;;;;;;;21.20;99.90;;;;;;5063842;28;19992;-66
2023/05/27 11:04:36;;;;;;;;;;;21.30;99.90;;;;;;5064329;28;19920;-66
2023/05/27 11:07:03;;;;;;;;;;;21.30;99.90;;;;;;5063899;28;20279;-67
2023/05/27 11:09:30;;;;;;;;;;;21.30;99.90;;;;;;5064069;28;20270;-66
2023/05/27 11:11:56;;;;;;;;;;;21.40;99.90;;;;;;5055807;28;19968;-66
2023/05/27 11:14:24;;;;;;;;;;;21.40;99.90;;;;;;5043379;28;20003;-66
2023/05/27 11:16:51;;;;;;;;;;;21.60;99.90;;;;;;5043534;28;20254;-66
2023/05/27 11:19:18;;;;;;;;;;;21.80;99.90;;;;;;5043982;28;19921;-67
2023/05/27 11:21:46;;;;;;;;;;;22.00;99.90;;;;;;5043852;28;19932;-67
2023/05/27 11:24:17;;;;;;;;;;;22.10;99.80;;;;;;5044121;28;19921;-66
2023/05/27 11:26:44;;;;;;;;;;;22.30;99.90;;;;;;5043420;28;19921;-66
2023/05/27 11:29:11;;;;;;;;;;;22.50;99.40;;;;;;5053957;28;19921;-66
2023/05/27 11:49:57;;;;;;;;;;;22.90;97.60;;;;;;5048302;28;19916;-66
2023/05/27 11:52:25;;;;;;;;;;;23.10;97.70;;;;;;5054697;28;19920;-66
2023/05/27 11:54:52;;;;;;;;;;;23.30;97.80;;;;;;5061098;28;19920;-66
2023/05/27 11:57:18;;;;;;;;;;;23.30;96.80;;;;;;5046730;28;19931;-67
2023/05/27 11:59:45;;;;;;;;;;;23.40;96.80;;;;;;5062896;28;19963;-67
2023/05/27 12:02:12;;;;;;;;;;;23.40;93.30;;;;;;5056023;28;19925;-67
2023/05/27 12:04:38;;;;;;;;;;;23.50;92.90;;;;;;5051189;28;19921;-68
2023/05/27 12:07:06;;;;;;;;;;;23.80;94.00;;;;;;5054075;28;20270;-67
2023/05/27 12:09:35;;;;;;;;;;;24.00;94.70;;;;;;5026334;28;20155;-66
2023/05/27 12:12:02;;;;;;;;;;;24.20;93.20;;;;;;5043329;28;20008;-67
2023/05/27 12:14:29;;;;;;;;;;;24.40;90.20;;;;;;5043091;28;19921;-66
2023/05/27 12:16:55;;;;;;;;;;;24.40;90.30;;;;;;5022867;28;19922;-66
2023/05/27 12:19:22;;;;;;;;;;;24.40;90.90;;;;;;5023666;28;19928;-66
2023/05/27 12:21:48;;;;;;;;;;;24.40;90.00;;;;;;5023340;28;19921;-67
2023/05/27 12:24:16;;;;;;;;;;;24.50;91.40;;;;;;5023509;28;20004;-67
2023/05/27 12:26:45;;;;;;;;;;;24.50;90.10;;;;;;5023348;28;19982;-66
2023/05/27 12:29:11;;;;;;;;;;;24.50;90.20;;;;;;5026817;28;19955;-66
2023/05/27 12:31:38;;;;;;;;;;;24.50;89.60;;;;;;5039734;28;20272;-66
2023/05/27 12:34:04;;;;;;;;;;;24.70;89.90;;;;;;5027860;28;19928;-67
2023/05/27 12:36:32;;;;;;;;;;;25.00;88.40;;;;;;5037850;28;20248;-66
2023/05/27 12:38:58;;;;;;;;;;;25.40;90.30;;;;;;5042625;28;19921;-66
2023/05/27 12:41:27;;;;;;;;;;;25.50;88.70;;;;;;5036986;28;19989;-67
2023/05/27 12:43:53;;;;;;;;;;;25.40;82.10;;;;;;5041301;28;20267;-67
2023/05/27 12:46:20;;;;;;;;;;;25.30;84.60;;;;;;5040322;28;20000;-67
2023/05/27 12:48:47;;;;;;;;;;;25.10;87.70;;;;;;5034280;28;19927;-67
2023/05/27 12:51:14;;;;;;;;;;;25.20;85.90;;;;;;5042544;28;19927;-66
2023/05/27 12:53:40;;;;;;;;;;;25.20;86.60;;;;;;5042710;28;20254;-66
2023/05/27 12:56:07;;;;;;;;;;;25.20;86.20;;;;;;5037723;28;19996;-67
2023/05/27 12:58:37;;;;;;;;;;;25.30;86.30;;;;;;5020400;28;19922;-66
2023/05/27 13:01:04;;;;;;;;;;;25.40;90.30;;;;;;5030810;28;20239;-67
2023/05/27 13:03:31;;;;;;;;;;;25.40;88.80;;;;;;5042833;28;19929;-66
2023/05/27 13:05:58;;;;;;;;;;;25.60;90.80;;;;;;5041772;28;20271;-66
2023/05/27 13:08:25;;;;;;;;;;;25.60;89.10;;;;;;5036885;28;19933;-66
2023/05/27 13:10:51;;;;;;;;;;;25.50;88.00;;;;;;5025632;28;19976;-68
2023/05/27 13:13:18;;;;;;;;;;;25.50;86.00;;;;;;5035604;28;19922;-67
2023/05/27 13:15:47;;;;;;;;;;;25.60;86.10;;;;;;5045956;28;19925;-66
2023/05/27 13:18:13;;;;;;;;;;;25.40;86.50;;;;;;5038648;28;19988;-65
2023/05/27 13:20:40;;;;;;;;;;;25.40;85.80;;;;;;5046204;28;20254;-67
2023/05/27 13:23:07;;;;;;;;;;;25.40;88.90;;;;;;5045567;28;19996;-66
2023/05/27 13:25:33;;;;;;;;;;;25.40;81.60;;;;;;5043754;28;20175;-65
2023/05/27 13:28:00;;;;;;;;;;;25.60;82.50;;;;;;5051575;28;19959;-66
2023/05/27 13:30:27;;;;;;;;;;;25.40;80.00;;;;;;5052414;28;19921;-66
2023/05/27 13:32:55;;;;;;;;;;;25.60;83.60;;;;;;5046954;28;19921;-65
2023/05/27 13:35:22;;;;;;;;;;;25.70;82.40;;;;;;5045137;28;20212;-67
2023/05/27 13:37:49;;;;;;;;;;;25.90;87.60;;;;;;5034374;28;20235;-66
2023/05/27 13:40:19;;;;;;;;;;;25.90;87.10;;;;;;5025645;28;19944;-66
2023/05/27 13:42:46;;;;;;;;;;;26.10;87.70;;;;;;5025956;28;19976;-66
2023/05/27 13:45:13;;;;;;;;;;;26.20;84.10;;;;;;5024617;28;19993;-68
2023/05/27 13:47:42;;;;;;;;;;;26.30;83.50;;;;;;5025144;28;19957;-66
2023/05/27 13:50:10;;;;;;;;;;;26.30;82.90;;;;;;5025681;28;19928;-67
2023/05/27 13:52:37;;;;;;;;;;;26.20;82.60;;;;;;5026098;28;19922;-66
2023/05/27 13:55:04;;;;;;;;;;;26.00;80.60;;;;;;5025016;28;19921;-65
2023/05/27 13:57:31;;;;;;;;;;;25.80;82.90;;;;;;5022778;28;19984;-66
2023/05/27 13:59:57;;;;;;;;;;;26.10;82.60;;;;;;5025500;28;19929;-66
2023/05/27 14:02:24;;;;;;;;;;;25.90;81.20;;;;;;5025923;28;19928;-66
2023/05/27 14:04:51;;;;;;;;;;;25.90;82.00;;;;;;5025613;28;20464;-67
2023/05/27 14:07:19;;;;;;;;;;;26.10;82.10;;;;;;5025518;28;19957;-66
2023/05/27 14:09:46;;;;;;;;;;;26.20;80.20;;;;;;5025693;28;19928;-66
2023/05/27 14:12:13;;;;;;;;;;;26.20;78.50;;;;;;5025755;28;19925;-66
2023/05/27 14:14:39;;;;;;;;;;;26.40;80.20;;;;;;5025378;28;19964;-68
2023/05/27 14:17:07;;;;;;;;;;;26.70;78.00;;;;;;5024470;28;19992;-66
2023/05/27 14:19:33;;;;;;;;;;;26.70;78.00;;;;;;5025239;28;19929;-67
2023/05/27 14:22:00;;;;;;;;;;;26.60;78.60;;;;;;5025096;28;20142;-65
2023/05/27 14:24:28;;;;;;;;;;;26.30;78.90;;;;;;5025313;28;19927;-66
2023/05/27 14:26:55;;;;;;;;;;;26.30;77.30;;;;;;5024624;28;19958;-66
2023/05/27 14:29:21;;;;;;;;;;;26.60;81.10;;;;;;5025241;28;20160;-66
2023/05/27 14:31:48;;;;;;;;;;;27.00;81.20;;;;;;5025211;28;19922;-67
2023/05/27 14:34:14;;;;;;;;;;;27.00;78.60;;;;;;5024950;28;19928;-66
2023/05/27 14:36:41;;;;;;;;;;;27.30;75.70;;;;;;5024210;28;19989;-66
2023/05/27 14:39:08;;;;;;;;;;;27.50;79.80;;;;;;5024760;28;19961;-66
2023/05/27 14:41:36;;;;;;;;;;;27.60;76.00;;;;;;5024725;28;19988;-66